createdAt,value
2024-02-15T00:00:32.127Z,63.81
2024-02-15T00:05:36.158Z,64.37
2024-02-15T00:10:39.669Z,63.61
2024-02-15T00:15:46.958Z,63.53
2024-02-15T00:20:50.907Z,63.46
2024-02-15T00:25:54.839Z,63.07
2024-02-15T00:30:59.675Z,62.72
2024-02-15T00:36:03.152Z,63.01
2024-02-15T00:41:08.979Z,63.11
2024-02-15T00:46:13.839Z,62.52
2024-02-15T00:51:17.262Z,63.13
2024-02-15T00:56:20.718Z,62.79
2024-02-15T01:01:25.569Z,62.53
2024-02-15T01:06:29.114Z,60.92
2024-02-15T01:11:33.493Z,61.67
2024-02-15T01:16:38.157Z,62.49
2024-02-15T01:21:41.566Z,63.22
2024-02-15T01:26:45.018Z,63.55
2024-02-15T01:31:50.137Z,63.63
2024-02-15T01:36:53.537Z,63.49
2024-02-15T01:41:57.739Z,63.62
2024-02-15T01:47:03.130Z,63.66
2024-02-15T01:52:10.184Z,64.09
2024-02-15T01:57:13.767Z,64.05
2024-02-15T02:02:20.374Z,63.74
2024-02-15T02:07:23.794Z,64.35
2024-02-15T02:12:28.978Z,64.04
2024-02-15T02:17:35.037Z,64.15
2024-02-15T02:22:39.843Z,64.26
2024-02-15T02:27:44.686Z,64.14
2024-02-15T02:32:48.685Z,64.23
2024-02-15T02:37:54.292Z,64.45
2024-02-15T02:43:00.923Z,63.78
2024-02-15T02:48:04.539Z,63.56
2024-02-15T02:53:08.024Z,63.52
2024-02-15T02:58:12.858Z,62.38
2024-02-15T03:03:16.684Z,62.00
2024-02-15T03:08:20.160Z,62.53
2024-02-15T03:13:25.000Z,61.50
2024-02-15T03:18:28.472Z,61.80
2024-02-15T03:23:32.101Z,62.09
2024-02-15T03:28:37.764Z,62.91
2024-02-15T03:33:41.414Z,63.30
2024-02-15T03:38:46.299Z,63.63
2024-02-15T03:43:51.275Z,63.69
2024-02-15T03:48:58.484Z,64.27
2024-02-15T03:54:02.049Z,63.71
2024-02-15T03:59:07.750Z,61.36
2024-02-15T04:04:11.204Z,61.37
2024-02-15T04:09:14.696Z,61.61
2024-02-15T04:14:19.668Z,60.19
2024-02-15T04:19:23.427Z,60.89
2024-02-15T04:24:26.927Z,59.14
2024-02-15T04:29:31.752Z,60.32
2024-02-15T04:34:35.309Z,61.37
2024-02-15T04:39:39.392Z,60.36
2024-02-15T04:44:44.442Z,57.27
2024-02-15T04:49:47.928Z,57.89
2024-02-15T04:54:51.318Z,57.39
2024-02-15T04:59:56.339Z,58.71
2024-02-15T05:05:02.369Z,58.19
2024-02-15T05:10:07.682Z,59.15
2024-02-15T05:15:13.710Z,56.21
2024-02-15T05:20:18.016Z,57.37
2024-02-15T05:25:25.923Z,56.93
2024-02-15T05:30:33.919Z,57.53
2024-02-15T05:35:43.235Z,57.27
2024-02-15T05:40:46.669Z,55.46
2024-02-15T05:45:52.946Z,56.12
2024-02-15T05:50:58.992Z,55.79
2024-02-15T05:56:02.739Z,55.44
2024-02-15T06:01:08.361Z,56.36
2024-02-15T06:06:12.977Z,57.21
2024-02-15T06:11:16.595Z,57.21
2024-02-15T06:16:21.412Z,57.76
2024-02-15T06:21:25.146Z,57.70
2024-02-15T06:26:29.478Z,57.96
2024-02-15T06:31:51.431Z,58.29
2024-02-15T06:37:13.376Z,58.48
2024-02-15T06:42:19.926Z,59.06
2024-02-15T06:47:24.856Z,59.24
2024-02-15T06:52:28.264Z,59.73
2024-02-15T06:57:31.636Z,60.56
2024-02-15T07:02:36.678Z,60.71
2024-02-15T07:07:44.023Z,61.65
2024-02-15T07:12:47.506Z,66.36
2024-02-15T07:17:56.086Z,68.44
2024-02-15T07:23:00.567Z,69.58
2024-02-15T07:28:04.061Z,68.77
2024-02-15T07:33:09.058Z,69.04
2024-02-15T07:38:13.254Z,70.61
2024-02-15T07:43:16.638Z,71.87
2024-02-15T07:48:21.647Z,73.81
2024-02-15T07:53:25.990Z,74.13
2024-02-15T07:58:32.523Z,74.49
2024-02-15T08:03:38.026Z,74.33
2024-02-15T08:08:43.001Z,74.09
2024-02-15T08:13:49.296Z,74.71
2024-02-15T08:18:56.705Z,73.04
2024-02-15T08:24:00.864Z,72.24
2024-02-15T08:29:08.038Z,72.31
2024-02-15T08:34:15.645Z,73.99
2024-02-15T08:39:19.478Z,74.27
2024-02-15T08:44:23.001Z,79.41
2024-02-15T08:49:28.994Z,79.59
2024-02-15T08:54:34.518Z,80.06
2024-02-15T08:59:38.041Z,79.98
2024-02-15T09:04:50.970Z,81.34
2024-02-15T09:10:02.884Z,81.61
2024-02-15T09:15:48.055Z,80.63
2024-02-15T09:21:10.890Z,80.25
2024-02-15T09:26:32.094Z,80.05
2024-02-15T09:32:00.131Z,79.35
2024-02-15T09:42:52.690Z,78.19
2024-02-15T09:43:06.464Z,79.50
2024-02-15T09:47:59.537Z,78.41
2024-02-15T09:53:11.847Z,78.75
2024-02-15T09:58:16.438Z,79.37
2024-02-15T10:03:22.867Z,80.16
2024-02-15T10:08:27.733Z,80.51
2024-02-15T10:13:33.153Z,80.36
2024-02-15T10:18:36.646Z,79.51
2024-02-15T10:23:41.543Z,79.12
2024-02-15T10:28:54.446Z,78.45
2024-02-15T10:34:22.461Z,77.93
2024-02-15T10:40:12.081Z,78.63
2024-02-15T10:45:40.714Z,78.51
2024-02-15T10:51:13.459Z,78.93
2024-02-15T10:56:21.153Z,79.33
2024-02-15T11:01:25.915Z,80.06
2024-02-15T11:06:37.407Z,79.71
2024-02-15T11:11:44.249Z,78.41
2024-02-15T11:16:51.259Z,79.22
2024-02-15T11:21:58.763Z,79.75
2024-02-15T11:27:05.676Z,79.22
2024-02-15T11:32:09.930Z,79.27
2024-02-15T11:37:52.521Z,80.05
2024-02-15T11:43:00.625Z,80.41
2024-02-15T11:48:04.494Z,80.11
2024-02-15T11:53:11.536Z,79.91
2024-02-15T11:58:30.202Z,78.94
2024-02-15T12:04:00.219Z,78.23
2024-02-15T12:09:25.102Z,76.83
2024-02-15T12:14:47.236Z,77.96
2024-02-15T12:19:52.481Z,78.27
2024-02-15T12:24:59.937Z,78.94
2024-02-15T12:30:07.876Z,80.01
2024-02-15T12:35:18.570Z,81.53
2024-02-15T12:40:26.930Z,80.84
2024-02-15T12:45:33.181Z,78.68
2024-02-15T12:50:37.457Z,77.73
2024-02-15T12:55:42.871Z,75.44
2024-02-15T13:00:47.731Z,75.41
2024-02-15T13:05:51.287Z,75.42
2024-02-15T13:10:54.964Z,74.87
2024-02-15T13:16:00.311Z,74.55
2024-02-15T13:21:07.038Z,75.21
2024-02-15T13:26:12.807Z,75.65
2024-02-15T13:31:17.781Z,75.81
2024-02-15T13:36:21.507Z,75.96
2024-02-15T13:41:25.042Z,75.84
2024-02-15T13:46:29.840Z,75.70
2024-02-15T13:51:36.348Z,75.18
2024-02-15T13:56:40.501Z,75.46
2024-02-15T14:01:46.908Z,77.18
2024-02-15T14:06:50.912Z,78.05
2024-02-15T14:11:55.418Z,80.23
2024-02-15T14:17:00.238Z,81.26
2024-02-15T14:22:05.423Z,82.79
2024-02-15T14:27:09.218Z,83.53
2024-02-15T14:32:31.581Z,82.63
2024-02-15T14:37:35.118Z,82.49
2024-02-15T14:42:40.117Z,81.25
2024-02-15T14:47:45.143Z,80.20
2024-02-15T14:52:49.306Z,79.63
2024-02-15T14:57:52.704Z,79.21
2024-02-15T15:02:58.684Z,79.19
2024-02-15T15:08:20.571Z,79.10
2024-02-15T15:13:24.752Z,79.14
2024-02-15T15:18:30.193Z,79.59
2024-02-15T15:23:33.829Z,80.34
2024-02-15T15:28:37.229Z,79.67
2024-02-15T15:33:42.152Z,78.48
2024-02-15T15:38:47.092Z,78.86
2024-02-15T15:43:51.767Z,77.91
2024-02-15T15:48:56.949Z,77.75
2024-02-15T15:54:00.766Z,78.30
2024-02-15T15:59:07.423Z,78.50
2024-02-15T16:04:12.447Z,77.81
2024-02-15T16:09:16.937Z,77.60
2024-02-15T16:14:20.424Z,77.38
2024-02-15T16:19:25.389Z,77.02
2024-02-15T16:24:28.981Z,76.66
2024-02-15T16:29:32.506Z,76.43
2024-02-15T16:34:37.460Z,76.59
2024-02-15T16:39:43.076Z,76.46
2024-02-15T16:44:48.530Z,77.68
2024-02-15T16:49:53.555Z,77.79
2024-02-15T16:54:58.263Z,77.65
2024-02-15T17:00:01.421Z,77.75
2024-02-15T17:05:09.076Z,78.15
2024-02-15T17:10:13.008Z,78.31
2024-02-15T17:15:16.499Z,79.10
2024-02-15T17:20:24.332Z,80.32
2024-02-15T17:25:28.636Z,80.72
2024-02-15T17:30:32.101Z,82.20
2024-02-15T17:35:38.034Z,82.54
2024-02-15T17:40:43.623Z,82.21
2024-02-15T17:45:49.814Z,81.54
2024-02-15T17:50:56.182Z,81.20
2024-02-15T17:56:02.779Z,81.01
2024-02-15T18:01:09.046Z,81.10
2024-02-15T18:06:14.490Z,81.15
2024-02-15T18:11:21.836Z,81.33
2024-02-15T18:16:27.587Z,81.37
2024-02-15T18:21:34.016Z,82.55
2024-02-15T18:26:37.473Z,82.90
2024-02-15T18:31:41.992Z,84.25
2024-02-15T18:36:57.594Z,84.07
2024-02-15T18:42:07.058Z,84.09
2024-02-15T18:47:10.684Z,84.48
2024-02-15T18:52:16.010Z,84.36
2024-02-15T18:57:21.708Z,84.94
2024-02-15T19:02:25.481Z,83.95
2024-02-15T19:07:30.372Z,83.37
2024-02-15T19:12:33.576Z,84.07
2024-02-15T19:17:40.104Z,83.39
2024-02-15T19:22:45.464Z,83.45
2024-02-15T19:27:49.516Z,83.74
2024-02-15T19:32:53.313Z,83.48
2024-02-15T19:37:58.178Z,83.37
2024-02-15T19:43:01.358Z,83.70
2024-02-15T19:48:07.552Z,82.69
2024-02-15T19:53:12.567Z,83.19
2024-02-15T19:58:16.059Z,83.07
2024-02-15T20:03:21.358Z,83.10
2024-02-15T20:08:26.343Z,83.02
2024-02-15T20:13:29.744Z,83.58
2024-02-15T20:18:36.023Z,84.23
2024-02-15T20:23:42.523Z,84.55
2024-02-15T20:28:46.105Z,84.04
2024-02-15T20:33:49.932Z,84.46
2024-02-15T20:38:56.507Z,83.87
2024-02-15T20:44:00.073Z,83.58
2024-02-15T20:49:04.342Z,83.61
2024-02-15T20:54:09.411Z,83.15
2024-02-15T20:59:14.710Z,83.24
2024-02-15T21:04:18.143Z,83.06
2024-02-15T21:09:23.388Z,83.33
2024-02-15T21:14:28.181Z,83.62
2024-02-15T21:19:31.561Z,83.82
2024-02-15T21:24:37.718Z,83.38
2024-02-15T21:29:43.299Z,83.68
2024-02-15T21:34:46.997Z,83.49
2024-02-15T21:39:51.866Z,83.39
2024-02-15T21:44:56.391Z,83.94
2024-02-15T21:50:02.859Z,84.28
2024-02-15T21:55:10.422Z,84.36
2024-02-15T22:00:14.512Z,84.71
2024-02-15T22:05:18.993Z,84.78
2024-02-15T22:10:23.904Z,85.13
2024-02-15T22:15:27.138Z,85.69
2024-02-15T22:20:30.741Z,85.32
2024-02-15T22:25:38.223Z,85.00
2024-02-15T22:30:41.675Z,84.72
2024-02-15T22:35:46.046Z,84.71
2024-02-15T22:40:51.446Z,84.97
2024-02-15T22:45:54.876Z,85.03
2024-02-15T22:51:04.128Z,85.25
2024-02-15T22:56:08.671Z,84.88
2024-02-15T23:01:15.242Z,85.42
2024-02-15T23:06:18.863Z,86.30
2024-02-15T23:11:22.472Z,86.28
2024-02-15T23:16:27.781Z,86.82
2024-02-15T23:21:31.370Z,86.26
2024-02-15T23:26:34.866Z,86.30
2024-02-15T23:31:40.780Z,85.87
2024-02-15T23:37:01.794Z,85.56
2024-02-15T23:42:05.752Z,86.47
2024-02-15T23:47:10.837Z,86.37
2024-02-15T23:52:14.499Z,85.63
2024-02-15T23:57:20.899Z,85.77
